sensor_id;sensor_type;location;lat;lon;timestamp;temperature;humidity
21944;DHT22;11136;48.778;9.126;2022-12-29T00:01:31;7.90;99.90
21944;DHT22;11136;48.778;9.126;2022-12-29T00:03:57;8.00;99.90
21944;DHT22;11136;48.778;9.126;2022-12-29T00:06:23;8.00;99.90
21944;DHT22;11136;48.778;9.126;2022-12-29T00:08:48;8.00;99.90
21944;DHT22;11136;48.778;9.126;2022-12-29T00:11:17;8.10;99.90
21944;DHT22;11136;48.778;9.126;2022-12-29T00:13:43;8.10;99.90
21944;DHT22;11136;48.778;9.126;2022-12-29T00:16:28;8.10;99.90
21944;DHT22;11136;48.778;9.126;2022-12-29T00:18:54;8.10;99.90
21944;DHT22;11136;48.778;9.126;2022-12-29T00:21:22;8.20;99.90
21944;DHT22;11136;48.778;9.126;2022-12-29T00:24:15;8.20;99.90
21944;DHT22;11136;48.778;9.126;2022-12-29T00:29:47;8.30;99.90
21944;DHT22;11136;48.778;9.126;2022-12-29T00:32:31;8.30;99.90
21944;DHT22;11136;48.778;9.126;2022-12-29T00:35:30;8.40;99.90
21944;DHT22;11136;48.778;9.126;2022-12-29T00:38:00;8.40;99.90
21944;DHT22;11136;48.778;9.126;2022-12-29T00:40:45;8.40;99.90
21944;DHT22;11136;48.778;9.126;2022-12-29T00:43:29;8.40;99.90
21944;DHT22;11136;48.778;9.126;2022-12-29T00:46:13;8.40;99.90
21944;DHT22;11136;48.778;9.126;2022-12-29T00:48:39;8.40;99.90
21944;DHT22;11136;48.778;9.126;2022-12-29T00:51:23;8.30;99.90
21944;DHT22;11136;48.778;9.126;2022-12-29T00:53:48;8.30;99.90
21944;DHT22;11136;48.778;9.126;2022-12-29T00:56:14;8.30;99.90
21944;DHT22;11136;48.778;9.126;2022-12-29T00:58:39;8.30;99.90
21944;DHT22;11136;48.778;9.126;2022-12-29T01:01:07;8.30;99.90
21944;DHT22;11136;48.778;9.126;2022-12-29T01:03:35;8.20;99.90
21944;DHT22;11136;48.778;9.126;2022-12-29T01:06:05;8.20;99.90
21944;DHT22;11136;48.778;9.126;2022-12-29T01:08:32;8.20;99.90
21944;DHT22;11136;48.778;9.126;2022-12-29T01:11:06;8.20;99.90
21944;DHT22;11136;48.778;9.126;2022-12-29T01:13:32;8.20;99.90
21944;DHT22;11136;48.778;9.126;2022-12-29T01:15:58;8.20;99.90
21944;DHT22;11136;48.778;9.126;2022-12-29T01:18:24;8.20;99.90
21944;DHT22;11136;48.778;9.126;2022-12-29T01:20:50;8.20;99.90
21944;DHT22;11136;48.778;9.126;2022-12-29T01:23:16;8.20;99.90
21944;DHT22;11136;48.778;9.126;2022-12-29T01:25:42;8.20;99.90
21944;DHT22;11136;48.778;9.126;2022-12-29T01:28:07;8.20;99.90
21944;DHT22;11136;48.778;9.126;2022-12-29T01:30:34;8.20;99.90
21944;DHT22;11136;48.778;9.126;2022-12-29T01:33:00;8.20;99.90
21944;DHT22;11136;48.778;9.126;2022-12-29T01:35:25;8.20;99.90
21944;DHT22;11136;48.778;9.126;2022-12-29T01:37:51;8.20;99.90
21944;DHT22;11136;48.778;9.126;2022-12-29T01:40:16;8.20;99.90
21944;DHT22;11136;48.778;9.126;2022-12-29T01:42:42;8.20;99.90
21944;DHT22;11136;48.778;9.126;2022-12-29T01:45:12;8.20;99.90
21944;DHT22;11136;48.778;9.126;2022-12-29T01:47:45;8.30;99.90
21944;DHT22;11136;48.778;9.126;2022-12-29T01:52:54;8.30;99.90
21944;DHT22;11136;48.778;9.126;2022-12-29T01:55:21;8.30;99.90
21944;DHT22;11136;48.778;9.126;2022-12-29T01:57:49;8.30;99.90
21944;DHT22;11136;48.778;9.126;2022-12-29T02:00:16;8.30;99.90
21944;DHT22;11136;48.778;9.126;2022-12-29T02:02:48;8.30;99.90
21944;DHT22;11136;48.778;9.126;2022-12-29T02:08:01;8.40;99.90
21944;DHT22;11136;48.778;9.126;2022-12-29T02:10:29;8.40;99.90
21944;DHT22;11136;48.778;9.126;2022-12-29T02:12:56;8.40;99.90
21944;DHT22;11136;48.778;9.126;2022-12-29T02:15:53;8.40;99.90
21944;DHT22;11136;48.778;9.126;2022-12-29T02:21:28;8.40;99.90
21944;DHT22;11136;48.778;9.126;2022-12-29T02:30:05;8.40;99.90
21944;DHT22;11136;48.778;9.126;2022-12-29T02:33:03;8.40;99.90
21944;DHT22;11136;48.778;9.126;2022-12-29T02:40:53;8.40;99.90
21944;DHT22;11136;48.778;9.126;2022-12-29T02:43:26;8.30;99.90
21944;DHT22;11136;48.778;9.126;2022-12-29T02:48:53;8.40;99.90
21944;DHT22;11136;48.778;9.126;2022-12-29T02:51:29;8.40;99.90
21944;DHT22;11136;48.778;9.126;2022-12-29T02:53:57;8.40;99.90
21944;DHT22;11136;48.778;9.126;2022-12-29T02:56:42;8.40;99.90
21944;DHT22;11136;48.778;9.126;2022-12-29T02:59:08;8.30;99.90
21944;DHT22;11136;48.778;9.126;2022-12-29T03:05:05;8.40;99.90
21944;DHT22;11136;48.778;9.126;2022-12-29T03:16:20;8.40;99.90
21944;DHT22;11136;48.778;9.126;2022-12-29T03:19:10;8.40;99.90
21944;DHT22;11136;48.778;9.126;2022-12-29T03:21:43;8.40;99.90
21944;DHT22;11136;48.778;9.126;2022-12-29T03:24:43;8.40;99.90
21944;DHT22;11136;48.778;9.126;2022-12-29T03:27:12;8.40;99.90
21944;DHT22;11136;48.778;9.126;2022-12-29T03:29:54;8.40;99.90
21944;DHT22;11136;48.778;9.126;2022-12-29T03:32:25;8.40;99.90
21944;DHT22;11136;48.778;9.126;2022-12-29T03:34:54;8.50;99.90
21944;DHT22;11136;48.778;9.126;2022-12-29T03:37:26;8.50;99.90
21944;DHT22;11136;48.778;9.126;2022-12-29T03:39:54;8.60;99.90
21944;DHT22;11136;48.778;9.126;2022-12-29T03:42:23;8.70;99.90
21944;DHT22;11136;48.778;9.126;2022-12-29T03:44:54;8.80;99.90
21944;DHT22;11136;48.778;9.126;2022-12-29T03:47:21;8.90;99.90
21944;DHT22;11136;48.778;9.126;2022-12-29T03:49:47;9.00;99.90
21944;DHT22;11136;48.778;9.126;2022-12-29T03:52:13;9.20;99.90
21944;DHT22;11136;48.778;9.126;2022-12-29T03:54:39;9.30;99.90
21944;DHT22;11136;48.778;9.126;2022-12-29T03:57:04;9.40;99.90
21944;DHT22;11136;48.778;9.126;2022-12-29T03:59:29;9.50;99.90
21944;DHT22;11136;48.778;9.126;2022-12-29T04:01:55;9.60;99.90
21944;DHT22;11136;48.778;9.126;2022-12-29T04:04:21;9.70;99.90
21944;DHT22;11136;48.778;9.126;2022-12-29T04:06:46;9.70;99.90
21944;DHT22;11136;48.778;9.126;2022-12-29T04:09:12;9.80;99.90
21944;DHT22;11136;48.778;9.126;2022-12-29T04:11:37;9.80;99.90
21944;DHT22;11136;48.778;9.126;2022-12-29T04:14:03;9.80;99.90
21944;DHT22;11136;48.778;9.126;2022-12-29T04:16:28;9.80;99.90
21944;DHT22;11136;48.778;9.126;2022-12-29T04:18:54;9.90;99.90
21944;DHT22;11136;48.778;9.126;2022-12-29T04:21:19;9.90;99.90
21944;DHT22;11136;48.778;9.126;2022-12-29T04:23:45;9.90;99.90
21944;DHT22;11136;48.778;9.126;2022-12-29T04:26:10;9.90;99.90
21944;DHT22;11136;48.778;9.126;2022-12-29T04:28:36;9.90;99.90
21944;DHT22;11136;48.778;9.126;2022-12-29T04:31:03;9.90;99.90
21944;DHT22;11136;48.778;9.126;2022-12-29T04:33:29;9.90;99.90
21944;DHT22;11136;48.778;9.126;2022-12-29T04:35:55;9.90;99.90
21944;DHT22;11136;48.778;9.126;2022-12-29T04:38:22;10.00;99.90
21944;DHT22;11136;48.778;9.126;2022-12-29T04:40:48;10.10;99.90
21944;DHT22;11136;48.778;9.126;2022-12-29T04:43:14;10.10;99.90
21944;DHT22;11136;48.778;9.126;2022-12-29T04:45:45;10.20;99.90
21944;DHT22;11136;48.778;9.126;2022-12-29T04:48:11;10.20;99.90
21944;DHT22;11136;48.778;9.126;2022-12-29T04:50:36;10.30;99.90
21944;DHT22;11136;48.778;9.126;2022-12-29T04:53:02;10.30;99.90
21944;DHT22;11136;48.778;9.126;2022-12-29T04:55:27;10.30;99.90
21944;DHT22;11136;48.778;9.126;2022-12-29T04:57:53;10.30;99.90
21944;DHT22;11136;48.778;9.126;2022-12-29T05:00:19;10.40;99.90
21944;DHT22;11136;48.778;9.126;2022-12-29T05:02:44;10.40;99.90
21944;DHT22;11136;48.778;9.126;2022-12-29T05:05:10;10.40;99.90
21944;DHT22;11136;48.778;9.126;2022-12-29T05:07:36;10.40;99.90
21944;DHT22;11136;48.778;9.126;2022-12-29T05:10:02;10.50;99.90
21944;DHT22;11136;48.778;9.126;2022-12-29T05:12:32;10.50;99.90
21944;DHT22;11136;48.778;9.126;2022-12-29T05:14:58;10.50;99.90
21944;DHT22;11136;48.778;9.126;2022-12-29T05:17:23;10.50;99.90
21944;DHT22;11136;48.778;9.126;2022-12-29T05:19:49;10.50;99.90
21944;DHT22;11136;48.778;9.126;2022-12-29T05:22:14;10.50;99.90
21944;DHT22;11136;48.778;9.126;2022-12-29T05:24:40;10.50;99.90
21944;DHT22;11136;48.778;9.126;2022-12-29T05:27:05;10.50;99.90
21944;DHT22;11136;48.778;9.126;2022-12-29T05:29:31;10.50;99.90
21944;DHT22;11136;48.778;9.126;2022-12-29T05:31:57;10.50;99.90
21944;DHT22;11136;48.778;9.126;2022-12-29T05:34:22;10.50;99.90
21944;DHT22;11136;48.778;9.126;2022-12-29T05:36:48;10.50;99.90
21944;DHT22;11136;48.778;9.126;2022-12-29T05:39:13;10.50;99.90
21944;DHT22;11136;48.778;9.126;2022-12-29T05:41:39;10.60;99.90
21944;DHT22;11136;48.778;9.126;2022-12-29T05:44:04;10.60;99.90
21944;DHT22;11136;48.778;9.126;2022-12-29T05:46:30;10.60;99.90
21944;DHT22;11136;48.778;9.126;2022-12-29T05:48:56;10.60;99.90
21944;DHT22;11136;48.778;9.126;2022-12-29T05:51:21;10.60;99.90
21944;DHT22;11136;48.778;9.126;2022-12-29T05:53:46;10.70;99.90
21944;DHT22;11136;48.778;9.126;2022-12-29T05:56:12;10.70;99.90
21944;DHT22;11136;48.778;9.126;2022-12-29T05:58:37;10.70;99.90
21944;DHT22;11136;48.778;9.126;2022-12-29T06:01:03;10.80;99.90
21944;DHT22;11136;48.778;9.126;2022-12-29T06:03:29;10.80;99.90
21944;DHT22;11136;48.778;9.126;2022-12-29T06:05:54;10.80;99.90
21944;DHT22;11136;48.778;9.126;2022-12-29T06:08:20;10.90;99.90
21944;DHT22;11136;48.778;9.126;2022-12-29T06:10:45;10.90;99.90
21944;DHT22;11136;48.778;9.126;2022-12-29T06:13:11;10.90;99.90
21944;DHT22;11136;48.778;9.126;2022-12-29T06:15:36;10.90;99.90
21944;DHT22;11136;48.778;9.126;2022-12-29T06:18:02;10.90;99.90
21944;DHT22;11136;48.778;9.126;2022-12-29T06:20:27;10.90;99.90
21944;DHT22;11136;48.778;9.126;2022-12-29T06:22:53;10.90;99.90
21944;DHT22;11136;48.778;9.126;2022-12-29T06:25:18;10.90;99.90
21944;DHT22;11136;48.778;9.126;2022-12-29T06:27:44;10.90;99.90
21944;DHT22;11136;48.778;9.126;2022-12-29T06:30:10;10.90;99.90
21944;DHT22;11136;48.778;9.126;2022-12-29T06:32:36;10.90;99.90
21944;DHT22;11136;48.778;9.126;2022-12-29T06:35:03;10.80;99.90
21944;DHT22;11136;48.778;9.126;2022-12-29T06:37:28;10.90;99.90
21944;DHT22;11136;48.778;9.126;2022-12-29T06:39:54;10.90;99.90
21944;DHT22;11136;48.778;9.126;2022-12-29T06:42:19;10.90;99.90
21944;DHT22;11136;48.778;9.126;2022-12-29T06:44:45;10.90;99.90
21944;DHT22;11136;48.778;9.126;2022-12-29T06:47:11;10.90;99.90
21944;DHT22;11136;48.778;9.126;2022-12-29T06:49:37;10.90;99.90
21944;DHT22;11136;48.778;9.126;2022-12-29T06:52:03;11.00;99.90
21944;DHT22;11136;48.778;9.126;2022-12-29T06:54:30;11.00;99.90
21944;DHT22;11136;48.778;9.126;2022-12-29T06:56:55;11.00;99.90
21944;DHT22;11136;48.778;9.126;2022-12-29T06:59:21;11.00;99.90
21944;DHT22;11136;48.778;9.126;2022-12-29T07:01:46;11.10;99.90
21944;DHT22;11136;48.778;9.126;2022-12-29T07:04:12;11.10;99.90
21944;DHT22;11136;48.778;9.126;2022-12-29T07:06:37;11.10;99.90
21944;DHT22;11136;48.778;9.126;2022-12-29T07:09:03;11.10;99.90
21944;DHT22;11136;48.778;9.126;2022-12-29T07:11:28;11.10;99.90
21944;DHT22;11136;48.778;9.126;2022-12-29T07:13:54;11.10;99.90
21944;DHT22;11136;48.778;9.126;2022-12-29T07:16:19;11.10;99.90
21944;DHT22;11136;48.778;9.126;2022-12-29T07:18:45;11.10;99.90
21944;DHT22;11136;48.778;9.126;2022-12-29T07:21:11;11.10;99.90
21944;DHT22;11136;48.778;9.126;2022-12-29T07:23:37;11.10;99.90
21944;DHT22;11136;48.778;9.126;2022-12-29T07:26:08;11.00;99.90
21944;DHT22;11136;48.778;9.126;2022-12-29T07:28:35;11.10;99.90
21944;DHT22;11136;48.778;9.126;2022-12-29T07:31:01;11.10;99.90
21944;DHT22;11136;48.778;9.126;2022-12-29T07:33:30;11.10;99.90
21944;DHT22;11136;48.778;9.126;2022-12-29T07:35:56;11.00;99.90
21944;DHT22;11136;48.778;9.126;2022-12-29T07:38:21;11.00;99.90
21944;DHT22;11136;48.778;9.126;2022-12-29T07:40:47;11.00;99.90
21944;DHT22;11136;48.778;9.126;2022-12-29T07:43:12;11.00;99.90
21944;DHT22;11136;48.778;9.126;2022-12-29T07:45:38;11.00;99.90
21944;DHT22;11136;48.778;9.126;2022-12-29T07:48:04;11.00;99.90
21944;DHT22;11136;48.778;9.126;2022-12-29T07:50:33;11.00;99.90
21944;DHT22;11136;48.778;9.126;2022-12-29T07:52:59;11.00;99.90
21944;DHT22;11136;48.778;9.126;2022-12-29T07:55:24;11.00;99.90
21944;DHT22;11136;48.778;9.126;2022-12-29T07:57:52;11.00;99.90
21944;DHT22;11136;48.778;9.126;2022-12-29T08:00:17;11.10;99.90
21944;DHT22;11136;48.778;9.126;2022-12-29T08:02:43;11.00;99.90
21944;DHT22;11136;48.778;9.126;2022-12-29T08:05:08;11.10;99.90
21944;DHT22;11136;48.778;9.126;2022-12-29T08:07:34;11.10;99.90
21944;DHT22;11136;48.778;9.126;2022-12-29T08:09:59;11.10;99.90
21944;DHT22;11136;48.778;9.126;2022-12-29T08:12:25;11.10;99.90
21944;DHT22;11136;48.778;9.126;2022-12-29T08:14:50;11.10;99.90
21944;DHT22;11136;48.778;9.126;2022-12-29T08:17:16;11.10;99.90
21944;DHT22;11136;48.778;9.126;2022-12-29T08:19:41;11.10;99.90
21944;DHT22;11136;48.778;9.126;2022-12-29T08:22:08;11.10;99.90
21944;DHT22;11136;48.778;9.126;2022-12-29T08:24:33;11.10;99.90
21944;DHT22;11136;48.778;9.126;2022-12-29T08:26:59;11.10;99.90
21944;DHT22;11136;48.778;9.126;2022-12-29T08:29:24;11.10;99.90
21944;DHT22;11136;48.778;9.126;2022-12-29T08:31:50;11.20;99.90
21944;DHT22;11136;48.778;9.126;2022-12-29T08:34:15;11.20;99.90
21944;DHT22;11136;48.778;9.126;2022-12-29T08:36:41;11.20;99.90
21944;DHT22;11136;48.778;9.126;2022-12-29T08:39:06;11.20;99.90
21944;DHT22;11136;48.778;9.126;2022-12-29T08:41:32;11.20;99.90
21944;DHT22;11136;48.778;9.126;2022-12-29T08:43:57;11.20;99.90
21944;DHT22;11136;48.778;9.126;2022-12-29T08:46:23;11.30;99.90
21944;DHT22;11136;48.778;9.126;2022-12-29T08:48:49;11.20;99.90
21944;DHT22;11136;48.778;9.126;2022-12-29T08:51:14;11.30;99.90
21944;DHT22;11136;48.778;9.126;2022-12-29T08:53:40;11.30;99.90
21944;DHT22;11136;48.778;9.126;2022-12-29T08:56:06;11.40;99.90
21944;DHT22;11136;48.778;9.126;2022-12-29T08:58:32;11.40;99.90
21944;DHT22;11136;48.778;9.126;2022-12-29T09:00:58;11.40;99.90
21944;DHT22;11136;48.778;9.126;2022-12-29T09:03:24;11.40;99.90
21944;DHT22;11136;48.778;9.126;2022-12-29T09:05:54;11.40;99.90
21944;DHT22;11136;48.778;9.126;2022-12-29T09:08:20;11.50;99.90
21944;DHT22;11136;48.778;9.126;2022-12-29T09:10:46;11.50;99.90
21944;DHT22;11136;48.778;9.126;2022-12-29T09:13:13;11.60;99.90
21944;DHT22;11136;48.778;9.126;2022-12-29T09:15:39;11.60;99.90
21944;DHT22;11136;48.778;9.126;2022-12-29T09:18:06;11.60;99.90
21944;DHT22;11136;48.778;9.126;2022-12-29T09:20:32;11.60;99.90
21944;DHT22;11136;48.778;9.126;2022-12-29T09:22:57;11.70;99.90
21944;DHT22;11136;48.778;9.126;2022-12-29T09:25:24;11.70;99.90
21944;DHT22;11136;48.778;9.126;2022-12-29T09:27:50;11.70;99.90
21944;DHT22;11136;48.778;9.126;2022-12-29T09:30:17;11.80;99.90
21944;DHT22;11136;48.778;9.126;2022-12-29T09:32:43;11.80;99.90
21944;DHT22;11136;48.778;9.126;2022-12-29T09:35:09;11.90;99.90
21944;DHT22;11136;48.778;9.126;2022-12-29T09:37:34;11.90;99.90
21944;DHT22;11136;48.778;9.126;2022-12-29T09:40:00;12.00;99.90
21944;DHT22;11136;48.778;9.126;2022-12-29T09:43:07;12.00;99.90
21944;DHT22;11136;48.778;9.126;2022-12-29T09:45:59;12.10;99.90
21944;DHT22;11136;48.778;9.126;2022-12-29T09:48:34;12.10;99.90
21944;DHT22;11136;48.778;9.126;2022-12-29T09:51:10;12.10;99.90
21944;DHT22;11136;48.778;9.126;2022-12-29T09:53:41;12.20;99.90
21944;DHT22;11136;48.778;9.126;2022-12-29T09:56:18;12.30;99.90
21944;DHT22;11136;48.778;9.126;2022-12-29T09:58:53;12.40;99.90
21944;DHT22;11136;48.778;9.126;2022-12-29T10:03:52;12.50;99.90
21944;DHT22;11136;48.778;9.126;2022-12-29T10:06:24;12.50;99.90
21944;DHT22;11136;48.778;9.126;2022-12-29T10:22:36;12.60;99.90
21944;DHT22;11136;48.778;9.126;2022-12-29T10:25:12;12.60;99.90
21944;DHT22;11136;48.778;9.126;2022-12-29T10:27:39;12.70;99.90
21944;DHT22;11136;48.778;9.126;2022-12-29T10:30:10;12.70;99.90
21944;DHT22;11136;48.778;9.126;2022-12-29T10:32:39;12.70;99.90
21944;DHT22;11136;48.778;9.126;2022-12-29T10:35:13;12.80;99.90
21944;DHT22;11136;48.778;9.126;2022-12-29T10:37:59;12.80;99.90
21944;DHT22;11136;48.778;9.126;2022-12-29T10:40:46;12.80;99.90
21944;DHT22;11136;48.778;9.126;2022-12-29T10:45:53;12.90;99.90
21944;DHT22;11136;48.778;9.126;2022-12-29T10:48:33;12.90;99.90
21944;DHT22;11136;48.778;9.126;2022-12-29T10:51:02;12.90;99.90
21944;DHT22;11136;48.778;9.126;2022-12-29T10:53:57;13.00;99.90
21944;DHT22;11136;48.778;9.126;2022-12-29T10:58:54;13.10;99.90
21944;DHT22;11136;48.778;9.126;2022-12-29T11:01:23;13.30;99.90
21944;DHT22;11136;48.778;9.126;2022-12-29T11:04:25;13.40;99.90
21944;DHT22;11136;48.778;9.126;2022-12-29T11:06:53;13.50;99.90
21944;DHT22;11136;48.778;9.126;2022-12-29T11:09:28;13.50;99.90
21944;DHT22;11136;48.778;9.126;2022-12-29T11:11:55;13.60;99.90
21944;DHT22;11136;48.778;9.126;2022-12-29T11:14:27;13.60;99.90
21944;DHT22;11136;48.778;9.126;2022-12-29T11:17:04;13.50;99.90
21944;DHT22;11136;48.778;9.126;2022-12-29T11:19:32;13.60;99.90
21944;DHT22;11136;48.778;9.126;2022-12-29T11:22:29;13.50;99.90
21944;DHT22;11136;48.778;9.126;2022-12-29T11:25:05;13.50;99.90
21944;DHT22;11136;48.778;9.126;2022-12-29T11:27:31;13.50;99.90
21944;DHT22;11136;48.778;9.126;2022-12-29T11:29:58;13.50;99.90
21944;DHT22;11136;48.778;9.126;2022-12-29T11:32:28;13.50;99.90
21944;DHT22;11136;48.778;9.126;2022-12-29T11:34:57;13.50;99.90
21944;DHT22;11136;48.778;9.126;2022-12-29T11:37:39;13.50;99.90
21944;DHT22;11136;48.778;9.126;2022-12-29T11:40:06;13.40;99.90
21944;DHT22;11136;48.778;9.126;2022-12-29T11:42:37;13.40;99.90
21944;DHT22;11136;48.778;9.126;2022-12-29T11:45:26;13.40;99.90
21944;DHT22;11136;48.778;9.126;2022-12-29T11:48:00;13.40;99.90
21944;DHT22;11136;48.778;9.126;2022-12-29T11:50:30;13.30;99.90
21944;DHT22;11136;48.778;9.126;2022-12-29T11:53:03;13.10;99.90
21944;DHT22;11136;48.778;9.126;2022-12-29T11:55:30;13.00;99.90
21944;DHT22;11136;48.778;9.126;2022-12-29T11:57:58;12.90;99.90
21944;DHT22;11136;48.778;9.126;2022-12-29T12:00:27;12.80;99.90
21944;DHT22;11136;48.778;9.126;2022-12-29T12:03:07;12.70;99.90
21944;DHT22;11136;48.778;9.126;2022-12-29T12:05:43;12.70;99.90
21944;DHT22;11136;48.778;9.126;2022-12-29T12:11:07;12.60;99.90
21944;DHT22;11136;48.778;9.126;2022-12-29T12:13:43;12.60;99.90
21944;DHT22;11136;48.778;9.126;2022-12-29T12:16:17;12.50;99.90
21944;DHT22;11136;48.778;9.126;2022-12-29T12:18:53;12.50;99.90
21944;DHT22;11136;48.778;9.126;2022-12-29T12:27:12;12.50;99.90
21944;DHT22;11136;48.778;9.126;2022-12-29T12:29:56;12.60;99.90
21944;DHT22;11136;48.778;9.126;2022-12-29T12:32:44;12.60;99.90
21944;DHT22;11136;48.778;9.126;2022-12-29T12:35:22;12.60;99.90
21944;DHT22;11136;48.778;9.126;2022-12-29T12:40:58;12.70;99.90
21944;DHT22;11136;48.778;9.126;2022-12-29T12:43:41;12.80;99.90
21944;DHT22;11136;48.778;9.126;2022-12-29T12:49:11;12.80;99.90
21944;DHT22;11136;48.778;9.126;2022-12-29T12:54:46;12.80;99.90
21944;DHT22;11136;48.778;9.126;2022-12-29T12:57:31;12.80;99.90
21944;DHT22;11136;48.778;9.126;2022-12-29T13:00:09;12.90;99.90
21944;DHT22;11136;48.778;9.126;2022-12-29T13:05:50;13.00;99.90
21944;DHT22;11136;48.778;9.126;2022-12-29T13:08:48;13.10;99.90
21944;DHT22;11136;48.778;9.126;2022-12-29T13:11:41;13.20;99.90
21944;DHT22;11136;48.778;9.126;2022-12-29T13:19:23;13.40;99.90
21944;DHT22;11136;48.778;9.126;2022-12-29T13:22:17;13.50;99.90
21944;DHT22;11136;48.778;9.126;2022-12-29T13:27:54;13.50;99.90
21944;DHT22;11136;48.778;9.126;2022-12-29T13:30:23;13.50;99.90
21944;DHT22;11136;48.778;9.126;2022-12-29T13:33:32;13.40;99.90
21944;DHT22;11136;48.778;9.126;2022-12-29T13:36:03;13.40;99.90
21944;DHT22;11136;48.778;9.126;2022-12-29T13:38:40;13.30;99.90
21944;DHT22;11136;48.778;9.126;2022-12-29T13:41:14;13.30;99.90
21944;DHT22;11136;48.778;9.126;2022-12-29T13:43:46;13.20;99.90
21944;DHT22;11136;48.778;9.126;2022-12-29T13:46:16;13.20;99.90
21944;DHT22;11136;48.778;9.126;2022-12-29T13:48:57;13.20;99.90
21944;DHT22;11136;48.778;9.126;2022-12-29T13:51:24;13.20;99.90
21944;DHT22;11136;48.778;9.126;2022-12-29T13:54:05;13.20;99.90
21944;DHT22;11136;48.778;9.126;2022-12-29T13:56:38;13.20;99.90
21944;DHT22;11136;48.778;9.126;2022-12-29T14:05:02;13.10;99.90
21944;DHT22;11136;48.778;9.126;2022-12-29T14:07:29;13.10;99.90
21944;DHT22;11136;48.778;9.126;2022-12-29T14:10:00;13.10;99.90
21944;DHT22;11136;48.778;9.126;2022-12-29T14:12:35;13.10;99.90
21944;DHT22;11136;48.778;9.126;2022-12-29T14:17:37;13.10;99.90
21944;DHT22;11136;48.778;9.126;2022-12-29T14:20:06;13.10;99.90
21944;DHT22;11136;48.778;9.126;2022-12-29T14:22:59;13.10;99.90
21944;DHT22;11136;48.778;9.126;2022-12-29T14:28:30;13.10;99.90
21944;DHT22;11136;48.778;9.126;2022-12-29T14:31:01;13.10;99.90
21944;DHT22;11136;48.778;9.126;2022-12-29T14:33:31;13.10;99.90
21944;DHT22;11136;48.778;9.126;2022-12-29T14:36:21;13.10;99.90
21944;DHT22;11136;48.778;9.126;2022-12-29T14:38:48;13.10;99.90
21944;DHT22;11136;48.778;9.126;2022-12-29T14:41:26;13.00;99.90
21944;DHT22;11136;48.778;9.126;2022-12-29T14:43:55;13.00;99.90
21944;DHT22;11136;48.778;9.126;2022-12-29T14:46:22;13.00;99.90
21944;DHT22;11136;48.778;9.126;2022-12-29T14:48:57;13.00;99.90
21944;DHT22;11136;48.778;9.126;2022-12-29T14:51:34;13.00;99.90
21944;DHT22;11136;48.778;9.126;2022-12-29T14:55:28;13.00;99.90
21944;DHT22;11136;48.778;9.126;2022-12-29T14:57:37;13.00;99.90
21944;DHT22;11136;48.778;9.126;2022-12-29T15:00:26;12.90;99.90
21944;DHT22;11136;48.778;9.126;2022-12-29T15:05:42;12.90;99.90
21944;DHT22;11136;48.778;9.126;2022-12-29T15:08:11;12.90;99.90
21944;DHT22;11136;48.778;9.126;2022-12-29T15:10:41;12.90;99.90
21944;DHT22;11136;48.778;9.126;2022-12-29T15:13:16;12.90;99.90
21944;DHT22;11136;48.778;9.126;2022-12-29T15:15:42;12.90;99.90
21944;DHT22;11136;48.778;9.126;2022-12-29T15:21:13;12.80;99.90
21944;DHT22;11136;48.778;9.126;2022-12-29T15:23:42;12.80;99.90
21944;DHT22;11136;48.778;9.126;2022-12-29T15:26:10;12.80;99.90
21944;DHT22;11136;48.778;9.126;2022-12-29T15:28:41;12.80;99.90
21944;DHT22;11136;48.778;9.126;2022-12-29T15:33:44;12.70;99.90
21944;DHT22;11136;48.778;9.126;2022-12-29T15:36:12;12.70;99.90
21944;DHT22;11136;48.778;9.126;2022-12-29T15:38:38;12.70;99.90
21944;DHT22;11136;48.778;9.126;2022-12-29T15:41:22;12.70;99.90
21944;DHT22;11136;48.778;9.126;2022-12-29T15:44:01;12.70;99.90
21944;DHT22;11136;48.778;9.126;2022-12-29T15:46:30;12.60;99.90
21944;DHT22;11136;48.778;9.126;2022-12-29T15:48:57;12.60;99.90
21944;DHT22;11136;48.778;9.126;2022-12-29T15:51:33;12.70;99.90
21944;DHT22;11136;48.778;9.126;2022-12-29T15:53:59;12.70;99.90
21944;DHT22;11136;48.778;9.126;2022-12-29T15:56:28;12.70;99.90
21944;DHT22;11136;48.778;9.126;2022-12-29T15:58:54;12.70;99.90
21944;DHT22;11136;48.778;9.126;2022-12-29T16:03:51;12.60;99.90
21944;DHT22;11136;48.778;9.126;2022-12-29T16:06:37;12.50;99.90
21944;DHT22;11136;48.778;9.126;2022-12-29T16:09:17;12.40;99.90
21944;DHT22;11136;48.778;9.126;2022-12-29T16:11:47;12.40;99.90
21944;DHT22;11136;48.778;9.126;2022-12-29T16:14:29;12.30;99.90
21944;DHT22;11136;48.778;9.126;2022-12-29T16:16:59;12.30;99.90
21944;DHT22;11136;48.778;9.126;2022-12-29T16:19:51;12.10;99.90
21944;DHT22;11136;48.778;9.126;2022-12-29T16:22:33;12.10;99.90
21944;DHT22;11136;48.778;9.126;2022-12-29T16:25:02;12.00;99.90
21944;DHT22;11136;48.778;9.126;2022-12-29T16:27:36;11.90;99.90
21944;DHT22;11136;48.778;9.126;2022-12-29T16:30:06;11.90;99.90
21944;DHT22;11136;48.778;9.126;2022-12-29T16:32:32;11.90;99.90
21944;DHT22;11136;48.778;9.126;2022-12-29T16:35:17;11.90;99.90
21944;DHT22;11136;48.778;9.126;2022-12-29T16:37:44;11.90;99.90
21944;DHT22;11136;48.778;9.126;2022-12-29T16:40:32;11.90;99.90
21944;DHT22;11136;48.778;9.126;2022-12-29T16:43:02;11.90;99.90
21944;DHT22;11136;48.778;9.126;2022-12-29T16:50:34;11.80;99.90
21944;DHT22;11136;48.778;9.126;2022-12-29T16:53:00;11.70;99.90
21944;DHT22;11136;48.778;9.126;2022-12-29T16:55:27;11.80;99.90
21944;DHT22;11136;48.778;9.126;2022-12-29T16:57:54;11.80;99.90
21944;DHT22;11136;48.778;9.126;2022-12-29T17:00:35;11.70;99.90
21944;DHT22;11136;48.778;9.126;2022-12-29T17:03:02;11.70;99.90
21944;DHT22;11136;48.778;9.126;2022-12-29T17:05:28;11.70;99.90
21944;DHT22;11136;48.778;9.126;2022-12-29T17:07:53;11.70;99.90
21944;DHT22;11136;48.778;9.126;2022-12-29T17:10:20;11.60;99.90
21944;DHT22;11136;48.778;9.126;2022-12-29T17:13:07;11.50;99.90
21944;DHT22;11136;48.778;9.126;2022-12-29T17:15:33;11.50;99.90
21944;DHT22;11136;48.778;9.126;2022-12-29T17:18:00;11.50;99.90
21944;DHT22;11136;48.778;9.126;2022-12-29T17:20:30;11.50;99.90
21944;DHT22;11136;48.778;9.126;2022-12-29T17:22:57;11.50;99.90
21944;DHT22;11136;48.778;9.126;2022-12-29T17:25:28;11.50;99.90
21944;DHT22;11136;48.778;9.126;2022-12-29T17:28:27;11.40;99.90
21944;DHT22;11136;48.778;9.126;2022-12-29T17:30:58;11.40;99.90
21944;DHT22;11136;48.778;9.126;2022-12-29T17:33:24;11.40;99.90
21944;DHT22;11136;48.778;9.126;2022-12-29T17:35:50;11.40;99.90
21944;DHT22;11136;48.778;9.126;2022-12-29T17:38:19;11.40;99.90
21944;DHT22;11136;48.778;9.126;2022-12-29T17:40:46;11.30;99.90
21944;DHT22;11136;48.778;9.126;2022-12-29T17:43:13;11.30;99.90
21944;DHT22;11136;48.778;9.126;2022-12-29T17:45:40;11.30;99.90
21944;DHT22;11136;48.778;9.126;2022-12-29T17:48:14;11.30;99.90
21944;DHT22;11136;48.778;9.126;2022-12-29T17:50:40;11.30;99.90
21944;DHT22;11136;48.778;9.126;2022-12-29T17:53:11;11.30;99.90